createdAt,value
2022-11-25T00:03:37.549Z,9.66
2022-11-25T00:08:42.391Z,9.66
2022-11-25T00:13:46.181Z,9.38
2022-11-25T00:18:51.026Z,9.64
2022-11-25T00:23:56.649Z,9.63
2022-11-25T00:29:00.657Z,9.66
2022-11-25T00:34:03.424Z,9.80
2022-11-25T00:39:11.213Z,9.75
2022-11-25T00:44:35.243Z,9.80
2022-11-25T00:49:39.334Z,9.83
2022-11-25T00:54:44.667Z,9.92
2022-11-25T00:59:47.378Z,9.91
2022-11-25T01:04:49.980Z,9.92
2022-11-25T01:09:54.370Z,9.91
2022-11-25T01:15:01.767Z,9.93
2022-11-25T01:20:04.846Z,10.00
2022-11-25T01:25:09.420Z,10.01
2022-11-25T01:30:12.740Z,10.05
2022-11-25T01:35:15.470Z,10.09
2022-11-25T01:40:19.761Z,10.12
2022-11-25T01:45:34.866Z,10.20
2022-11-25T01:50:38.041Z,10.18
2022-11-25T01:55:45.640Z,10.14
2022-11-25T02:06:25.715Z,10.25
2022-11-25T02:11:31.680Z,10.23
2022-11-25T02:16:34.257Z,10.18
2022-11-25T02:21:43.773Z,10.21
2022-11-25T02:26:48.104Z,10.24
2022-11-25T02:31:51.779Z,10.27
2022-11-25T02:36:54.622Z,10.16
2022-11-25T02:42:00.794Z,10.16
2022-11-25T02:47:03.492Z,10.27
2022-11-25T02:52:06.136Z,10.19
2022-11-25T02:57:10.210Z,10.00
2022-11-25T03:02:12.849Z,10.18
2022-11-25T03:07:15.460Z,10.17
2022-11-25T03:12:22.533Z,10.18
2022-11-25T03:17:29.066Z,10.22
2022-11-25T03:22:31.836Z,10.24
2022-11-25T03:27:36.763Z,10.26
2022-11-25T03:32:39.460Z,10.28
2022-11-25T03:37:42.938Z,10.28
2022-11-25T03:42:48.249Z,10.32
2022-11-25T03:47:52.335Z,10.30
2022-11-25T03:52:55.962Z,10.27
2022-11-25T03:58:00.152Z,10.22
2022-11-25T04:03:02.935Z,10.11
2022-11-25T04:08:09.050Z,10.13
2022-11-25T04:13:14.683Z,10.16
2022-11-25T04:18:19.704Z,10.04
2022-11-25T04:23:26.035Z,10.02
2022-11-25T04:28:36.133Z,10.01
2022-11-25T04:33:39.234Z,10.02
2022-11-25T04:38:42.947Z,9.92
2022-11-25T04:43:47.093Z,9.92
2022-11-25T04:48:51.017Z,9.93
2022-11-25T04:53:55.419Z,9.95
2022-11-25T04:59:19.010Z,9.98
2022-11-25T05:04:23.391Z,9.98
2022-11-25T05:09:26.209Z,9.99
2022-11-25T05:14:50.690Z,9.94
2022-11-25T05:19:54.256Z,10.00
2022-11-25T05:24:57.620Z,9.79
2022-11-25T05:30:01.700Z,9.92
2022-11-25T05:35:05.133Z,9.91
2022-11-25T05:40:09.105Z,10.00
2022-11-25T05:45:39.652Z,9.95
2022-11-25T05:50:44.646Z,9.92
2022-11-25T05:55:57.464Z,9.89
2022-11-25T06:01:19.890Z,9.94
2022-11-25T06:06:23.873Z,9.98
2022-11-25T06:11:26.506Z,9.89
2022-11-25T06:16:30.611Z,9.85
2022-11-25T06:21:45.649Z,9.73
2022-11-25T06:26:49.264Z,9.94
2022-11-25T06:31:53.756Z,9.99
2022-11-25T06:37:10.215Z,9.92
2022-11-25T06:42:13.059Z,9.73
2022-11-25T06:47:17.568Z,9.75
2022-11-25T06:52:20.086Z,9.86
2022-11-25T06:57:22.620Z,9.87
2022-11-25T07:02:26.556Z,9.81
2022-11-25T07:07:29.164Z,9.77
2022-11-25T07:12:32.458Z,9.75
2022-11-25T07:17:36.745Z,9.69
2022-11-25T07:22:39.330Z,9.70
2022-11-25T07:27:41.888Z,9.67
2022-11-25T07:32:45.762Z,9.61
2022-11-25T07:37:48.724Z,9.65
2022-11-25T07:42:51.522Z,9.69
2022-11-25T07:47:55.511Z,9.72
2022-11-25T07:52:58.056Z,9.72
2022-11-25T07:58:00.623Z,9.74
2022-11-25T08:03:05.277Z,9.72
2022-11-25T08:08:08.146Z,9.71
2022-11-25T08:13:10.743Z,9.66
2022-11-25T08:18:14.948Z,9.39
2022-11-25T08:23:17.573Z,9.62
2022-11-25T08:28:20.150Z,9.63
2022-11-25T08:33:24.947Z,9.68
2022-11-25T08:38:28.632Z,9.75
2022-11-25T08:43:31.414Z,9.86
2022-11-25T08:48:35.572Z,9.85
2022-11-25T08:53:40.089Z,10.04
2022-11-25T08:58:42.642Z,10.03
2022-11-25T09:03:49.176Z,10.07
2022-11-25T09:08:52.382Z,9.96
2022-11-25T09:13:55.047Z,10.15
2022-11-25T09:18:59.939Z,10.13
2022-11-25T09:24:02.711Z,10.18
2022-11-25T09:29:05.334Z,10.18
2022-11-25T09:34:09.850Z,10.23
2022-11-25T09:39:12.587Z,10.30
2022-11-25T09:44:47.800Z,10.27
2022-11-25T09:55:39.081Z,10.31
2022-11-25T10:00:44.737Z,10.38
2022-11-25T10:05:56.020Z,10.44
2022-11-25T10:11:03.825Z,10.49
2022-11-25T10:16:15.505Z,10.54
2022-11-25T10:21:19.442Z,10.68
2022-11-25T10:26:25.527Z,10.78
2022-11-25T10:31:36.237Z,10.82
2022-11-25T10:36:43.144Z,10.89
2022-11-25T10:41:51.385Z,11.06
2022-11-25T10:47:15.023Z,11.23
2022-11-25T10:52:23.078Z,11.15
2022-11-25T10:57:29.563Z,11.33
2022-11-25T11:02:39.806Z,11.38
2022-11-25T11:07:46.611Z,11.43
2022-11-25T11:12:57.497Z,10.82
2022-11-25T11:18:01.635Z,11.42
2022-11-25T11:23:10.714Z,11.47
2022-11-25T11:28:32.950Z,11.48
2022-11-25T11:33:42.077Z,11.62
2022-11-25T11:38:54.550Z,11.66
2022-11-25T11:44:08.515Z,11.51
2022-11-25T11:49:31.806Z,11.58
2022-11-25T11:54:38.599Z,11.60
2022-11-25T11:59:48.763Z,11.64
2022-11-25T12:04:58.761Z,11.56
2022-11-25T12:10:06.539Z,11.81
2022-11-25T12:15:18.657Z,11.84
2022-11-25T12:20:33.696Z,11.90
2022-11-25T12:25:41.472Z,11.82
2022-11-25T12:31:04.743Z,11.77
2022-11-25T12:36:13.236Z,11.65
2022-11-25T12:41:25.578Z,11.81
2022-11-25T12:46:36.013Z,11.91
2022-11-25T12:51:51.391Z,11.83
2022-11-25T12:57:25.088Z,11.90
2022-11-25T13:02:47.787Z,12.06
2022-11-25T13:08:06.518Z,11.91
2022-11-25T13:13:25.916Z,12.06
2022-11-25T13:18:33.352Z,12.15
2022-11-25T13:23:49.335Z,12.11
2022-11-25T13:28:53.552Z,12.18
2022-11-25T13:34:03.162Z,12.17
2022-11-25T13:39:14.103Z,12.20
2022-11-25T13:44:25.243Z,12.18
2022-11-25T13:49:42.066Z,12.24
2022-11-25T13:54:50.426Z,12.20
2022-11-25T13:59:58.212Z,12.28
2022-11-25T14:05:07.539Z,12.22
2022-11-25T14:10:28.099Z,12.19
2022-11-25T14:15:45.388Z,12.19
2022-11-25T14:20:57.309Z,12.08
2022-11-25T14:26:16.314Z,12.09
2022-11-25T14:31:38.219Z,12.13
2022-11-25T14:36:45.549Z,12.12
2022-11-25T14:41:53.787Z,11.99
2022-11-25T14:46:59.645Z,11.92
2022-11-25T14:52:02.253Z,11.84
2022-11-25T14:57:04.917Z,11.97
2022-11-25T15:02:25.443Z,12.00
2022-11-25T15:07:31.304Z,11.84
2022-11-25T15:12:35.024Z,11.89
2022-11-25T15:17:38.942Z,11.85
2022-11-25T15:22:46.840Z,11.82
2022-11-25T15:27:51.758Z,11.78
2022-11-25T15:32:57.583Z,11.73
2022-11-25T15:38:00.282Z,11.68
2022-11-25T15:43:05.253Z,11.63
2022-11-25T15:48:16.584Z,11.66
2022-11-25T15:53:31.615Z,11.66
2022-11-25T15:58:36.139Z,11.63
2022-11-25T16:03:40.094Z,11.34
2022-11-25T16:08:54.154Z,11.54
2022-11-25T16:14:19.944Z,11.52
2022-11-25T16:19:31.611Z,11.57
2022-11-25T16:24:41.371Z,11.57
2022-11-25T16:29:54.770Z,11.50
2022-11-25T16:35:01.686Z,11.41
2022-11-25T16:40:04.973Z,11.33
2022-11-25T16:45:18.838Z,11.26
2022-11-25T16:50:22.379Z,11.09
2022-11-25T16:55:25.734Z,11.22
2022-11-25T17:00:29.977Z,11.15
2022-11-25T17:05:32.579Z,11.09
2022-11-25T17:10:35.607Z,11.02
2022-11-25T17:15:40.047Z,11.02
2022-11-25T17:20:42.720Z,10.97
2022-11-25T17:25:49.715Z,10.82
2022-11-25T17:30:53.867Z,10.99
2022-11-25T17:35:56.405Z,11.02
2022-11-25T17:40:58.970Z,11.14
2022-11-25T17:46:02.942Z,11.24
2022-11-25T17:51:07.683Z,11.34
2022-11-25T17:56:19.577Z,11.30
2022-11-25T18:01:24.712Z,11.30
2022-11-25T18:06:27.301Z,11.24
2022-11-25T18:11:29.843Z,11.08
2022-11-25T18:16:35.331Z,11.01
2022-11-25T18:21:38.106Z,11.09
2022-11-25T18:26:44.882Z,11.18
2022-11-25T18:31:49.804Z,11.22
2022-11-25T18:36:53.093Z,10.81
2022-11-25T18:41:58.182Z,10.79
2022-11-25T18:47:02.192Z,10.71
2022-11-25T18:52:05.039Z,10.69
2022-11-25T18:57:07.770Z,10.68
2022-11-25T19:02:17.078Z,10.67
2022-11-25T19:07:20.502Z,10.45
2022-11-25T19:12:23.362Z,10.44
2022-11-25T19:17:28.113Z,10.29
2022-11-25T19:22:31.115Z,10.21
2022-11-25T19:27:38.641Z,10.28
2022-11-25T19:32:45.093Z,10.09
2022-11-25T19:37:47.749Z,10.17
2022-11-25T19:42:51.147Z,10.10
2022-11-25T19:47:55.017Z,10.07
2022-11-25T19:52:57.634Z,10.01
2022-11-25T19:58:00.726Z,10.01
2022-11-25T20:03:05.205Z,10.04
2022-11-25T20:08:12.987Z,9.90
2022-11-25T20:13:15.838Z,9.89
2022-11-25T20:18:23.377Z,9.87
2022-11-25T20:23:29.517Z,9.65
2022-11-25T20:28:32.551Z,9.72
2022-11-25T20:33:36.646Z,9.74
2022-11-25T20:38:44.367Z,9.70
2022-11-25T20:43:49.545Z,9.64
2022-11-25T20:48:56.224Z,9.55
2022-11-25T20:54:01.553Z,9.46
2022-11-25T20:59:11.565Z,9.39
2022-11-25T21:04:15.721Z,9.43
2022-11-25T21:09:21.788Z,9.28
2022-11-25T21:14:24.672Z,9.24
2022-11-25T21:19:28.544Z,9.19
2022-11-25T21:24:33.569Z,9.04
2022-11-25T21:29:36.577Z,9.17
2022-11-25T21:34:40.785Z,9.13
2022-11-25T21:39:43.692Z,8.99
2022-11-25T21:44:47.251Z,8.96
2022-11-25T21:49:51.733Z,8.90
2022-11-25T21:54:54.383Z,9.04
2022-11-25T21:59:56.991Z,9.05
2022-11-25T22:05:01.395Z,8.79
2022-11-25T22:10:04.149Z,8.98
2022-11-25T22:15:12.930Z,8.82
2022-11-25T22:20:26.736Z,8.87
2022-11-25T22:25:32.112Z,8.91
2022-11-25T22:30:34.853Z,8.15
2022-11-25T22:35:38.802Z,8.79
2022-11-25T22:40:43.091Z,8.76
2022-11-25T22:45:46.774Z,8.59
2022-11-25T22:50:50.745Z,8.70
2022-11-25T22:55:56.751Z,8.60
2022-11-25T23:00:59.354Z,8.67
2022-11-25T23:06:05.548Z,8.52
2022-11-25T23:11:16.191Z,8.48
2022-11-25T23:16:18.806Z,8.31
2022-11-25T23:21:25.409Z,8.37
2022-11-25T23:26:33.626Z,8.31
2022-11-25T23:31:39.702Z,8.46
2022-11-25T23:36:47.238Z,8.51
2022-11-25T23:41:50.349Z,8.51
2022-11-25T23:46:57.498Z,8.50
2022-11-25T23:52:07.757Z,8.34
2022-11-25T23:57:15.263Z,8.42
